Time;durP1;ratioP1;P1;durP2;ratioP2;P2;SDS_P1;SDS_P2;PMS_P1;PMS_P2;Temp;Humidity;BMP_temperature;BMP_pressure;BME280_temperature;BME280_humidity;BME280_pressure;Samples;Min_cycle;Max_cycle;Signal;HPM_P1;HPM_P2
2023/05/29 00:01:52;;;;;;;9.35;2.90;;;13.90;99.90;;;;;;7311375;32;20232;-54
2023/05/29 00:05:54;;;;;;;4.80;2.30;;;13.90;99.90;;;;;;7336721;32;20135;-54
2023/05/29 00:09:56;;;;;;;4.72;1.95;;;13.90;99.90;;;;;;7331073;32;20139;-55
2023/05/29 00:13:58;;;;;;;4.07;1.80;;;13.80;99.90;;;;;;7333732;32;20551;-55
2023/05/29 00:18:01;;;;;;;6.18;2.35;;;13.70;99.90;;;;;;7331715;32;20104;-54
2023/05/29 00:22:03;;;;;;;6.15;2.22;;;13.70;99.90;;;;;;7336671;32;20131;-54
2023/05/29 00:26:05;;;;;;;6.18;2.00;;;13.70;99.90;;;;;;7331422;32;20112;-55
2023/05/29 00:30:07;;;;;;;5.82;2.25;;;13.50;99.90;;;;;;7327680;32;20442;-54
2023/05/29 00:34:09;;;;;;;4.97;2.10;;;13.50;99.90;;;;;;7330820;32;20178;-54
2023/05/29 00:38:11;;;;;;;5.35;1.92;;;13.50;99.90;;;;;;7316311;32;20127;-54
2023/05/29 00:42:13;;;;;;;3.67;2.15;;;13.40;99.90;;;;;;7315808;32;20103;-54
2023/05/29 00:46:16;;;;;;;4.82;2.05;;;13.30;99.90;;;;;;7314177;32;20176;-54
2023/05/29 00:50:21;;;;;;;7.87;2.33;;;13.20;99.90;;;;;;7327338;32;20180;-54
2023/05/29 00:54:28;;;;;;;4.85;2.25;;;13.20;99.90;;;;;;7330711;32;20124;-55
2023/05/29 00:58:30;;;;;;;6.28;1.90;;;13.10;99.90;;;;;;7328544;32;20270;-55
2023/05/29 01:02:32;;;;;;;4.68;2.58;;;13.10;99.90;;;;;;7328809;32;20483;-55
2023/05/29 01:06:35;;;;;;;4.57;2.37;;;13.00;99.90;;;;;;7327418;32;20131;-55
2023/05/29 01:10:37;;;;;;;9.05;2.67;;;12.90;99.90;;;;;;7329035;32;20119;-54
2023/05/29 01:15:04;;;;;;;10.50;2.40;;;12.90;99.90;;;;;;7334681;32;20224;-54
2023/05/29 01:19:24;;;;;;;9.15;2.87;;;12.80;99.90;;;;;;7330842;32;20370;-55
2023/05/29 01:23:54;;;;;;;6.28;2.60;;;12.60;99.90;;;;;;7332111;32;20517;-55
2023/05/29 01:28:00;;;;;;;4.10;2.37;;;12.60;99.90;;;;;;7337319;32;20106;-55
2023/05/29 01:32:03;;;;;;;7.78;2.80;;;12.50;99.90;;;;;;7335270;32;20150;-55
2023/05/29 01:36:10;;;;;;;7.93;2.60;;;12.40;99.90;;;;;;7328886;32;20645;-55
2023/05/29 01:40:13;;;;;;;8.38;3.22;;;12.30;99.90;;;;;;7331486;32;20131;-54
2023/05/29 01:44:16;;;;;;;9.57;2.95;;;12.30;99.90;;;;;;7331646;32;20104;-54
2023/05/29 01:48:18;;;;;;;7.70;2.92;;;12.20;99.90;;;;;;7334440;32;20530;-54
2023/05/29 01:52:20;;;;;;;5.28;2.37;;;12.20;99.90;;;;;;7318838;32;20560;-54
2023/05/29 01:56:22;;;;;;;10.25;2.90;;;12.10;99.90;;;;;;7318164;32;20107;-54
2023/05/29 02:00:25;;;;;;;14.75;3.30;;;12.10;99.90;;;;;;7330156;32;20148;-54
2023/05/29 02:04:26;;;;;;;8.43;3.05;;;12.10;99.90;;;;;;7334285;32;20123;-53
2023/05/29 02:08:28;;;;;;;10.65;2.42;;;11.90;99.90;;;;;;7326214;32;20182;-56
2023/05/29 02:12:30;;;;;;;13.85;2.90;;;11.80;99.90;;;;;;7340423;32;20596;-55
2023/05/29 02:16:33;;;;;;;7.93;3.35;;;11.80;99.90;;;;;;7335726;32;20230;-54
2023/05/29 02:20:35;;;;;;;10.38;3.22;;;11.80;99.90;;;;;;7342878;32;20118;-54
2023/05/29 02:24:37;;;;;;;5.93;2.40;;;11.70;99.90;;;;;;7325601;32;20216;-54
2023/05/29 02:28:39;;;;;;;10.60;3.10;;;11.60;99.90;;;;;;7332815;32;20116;-54
2023/05/29 02:32:41;;;;;;;7.90;2.70;;;11.50;99.90;;;;;;7336870;32;20336;-54
2023/05/29 02:36:43;;;;;;;9.05;2.75;;;11.50;99.90;;;;;;7331824;32;20160;-54
2023/05/29 02:40:44;;;;;;;11.35;2.78;;;11.50;99.90;;;;;;7330568;32;20477;-54
2023/05/29 02:44:47;;;;;;;8.23;2.83;;;11.40;99.90;;;;;;7309888;32;20136;-55
2023/05/29 02:48:48;;;;;;;11.00;3.08;;;11.30;99.90;;;;;;7323454;32;20130;-54
2023/05/29 02:52:50;;;;;;;10.63;2.95;;;11.20;99.90;;;;;;7320426;32;20115;-54
2023/05/29 02:56:52;;;;;;;10.35;2.92;;;11.10;99.90;;;;;;7335506;32;20130;-54
2023/05/29 03:00:54;;;;;;;11.50;3.05;;;10.90;99.90;;;;;;7330139;32;20144;-54
2023/05/29 03:04:56;;;;;;;11.48;2.92;;;10.90;99.90;;;;;;7332712;32;20518;-54
2023/05/29 03:08:59;;;;;;;13.07;2.65;;;10.90;99.90;;;;;;7331302;32;20158;-54
2023/05/29 03:13:01;;;;;;;13.30;2.85;;;10.80;99.90;;;;;;7333052;32;20527;-54
2023/05/29 03:17:09;;;;;;;16.20;3.62;;;10.70;99.90;;;;;;7331914;32;20486;-54
2023/05/29 03:21:11;;;;;;;16.30;2.45;;;10.80;99.90;;;;;;7330939;32;20235;-54
2023/05/29 03:25:13;;;;;;;11.38;3.00;;;10.70;99.90;;;;;;7329390;32;20618;-54
2023/05/29 03:29:16;;;;;;;12.68;2.83;;;10.70;99.90;;;;;;7334631;32;20116;-54
2023/05/29 03:33:17;;;;;;;14.60;2.15;;;10.60;99.90;;;;;;7314247;32;20291;-54
2023/05/29 03:37:19;;;;;;;12.27;2.67;;;10.60;99.90;;;;;;7333322;32;20114;-54
2023/05/29 03:41:21;;;;;;;9.90;2.40;;;10.60;99.90;;;;;;7327858;32;20228;-54
2023/05/29 03:45:23;;;;;;;12.30;2.80;;;10.50;99.90;;;;;;7330143;32;20269;-54
2023/05/29 03:49:25;;;;;;;11.05;2.67;;;10.60;99.90;;;;;;7315866;32;20205;-54
2023/05/29 03:53:27;;;;;;;16.95;3.05;;;10.50;99.90;;;;;;7328496;32;20138;-54
2023/05/29 03:57:28;;;;;;;11.05;2.62;;;10.50;99.90;;;;;;7319512;32;20159;-54
2023/05/29 04:01:30;;;;;;;10.32;2.47;;;10.50;99.90;;;;;;7336991;32;20103;-54
2023/05/29 04:05:32;;;;;;;20.30;2.90;;;10.60;99.90;;;;;;7330653;32;20116;-54
2023/05/29 04:09:34;;;;;;;10.15;2.60;;;10.50;99.90;;;;;;7332716;32;20297;-55
2023/05/29 04:13:36;;;;;;;16.33;2.72;;;10.50;99.90;;;;;;7331256;32;20169;-54
2023/05/29 04:17:38;;;;;;;15.40;3.17;;;10.50;99.90;;;;;;7327407;32;20119;-55
2023/05/29 04:21:39;;;;;;;16.20;2.70;;;10.50;99.90;;;;;;7331639;32;20253;-54
2023/05/29 04:25:41;;;;;;;19.50;2.97;;;10.60;99.90;;;;;;7316375;32;20206;-54
2023/05/29 04:29:43;;;;;;;11.98;2.80;;;10.60;99.90;;;;;;7328097;32;20168;-54
2023/05/29 04:33:45;;;;;;;12.23;2.30;;;10.60;99.90;;;;;;7334177;32;20164;-54
2023/05/29 04:37:47;;;;;;;12.45;2.62;;;10.60;99.90;;;;;;7333570;32;20522;-54
2023/05/29 04:41:49;;;;;;;13.32;3.08;;;10.80;99.90;;;;;;7331661;32;20111;-54
2023/05/29 04:45:52;;;;;;;18.37;3.37;;;10.90;99.90;;;;;;7320386;32;20273;-54
2023/05/29 04:49:54;;;;;;;17.80;3.45;;;10.90;99.90;;;;;;7335627;32;20104;-55
2023/05/29 04:53:56;;;;;;;14.18;2.67;;;11.20;99.90;;;;;;7334555;32;20248;-54
2023/05/29 04:57:58;;;;;;;8.20;2.50;;;11.50;99.90;;;;;;7336030;32;20447;-54
2023/05/29 05:02:00;;;;;;;12.88;2.37;;;11.70;99.90;;;;;;7325789;32;20172;-55
2023/05/29 05:06:04;;;;;;;17.50;3.42;;;11.90;99.90;;;;;;7342217;32;20104;-55
2023/05/29 05:10:07;;;;;;;12.68;2.75;;;11.90;99.90;;;;;;7328928;32;20134;-55
2023/05/29 05:14:09;;;;;;;17.40;2.72;;;11.90;99.90;;;;;;7336800;32;20119;-55
2023/05/29 05:18:10;;;;;;;12.23;2.95;;;12.30;99.90;;;;;;7329212;32;20263;-54
2023/05/29 05:22:12;;;;;;;10.38;2.78;;;12.00;99.90;;;;;;7314979;32;20203;-55
2023/05/29 05:26:14;;;;;;;14.55;2.37;;;12.30;99.90;;;;;;7323051;32;20183;-55
2023/05/29 05:30:16;;;;;;;10.70;2.22;;;12.60;99.90;;;;;;7338555;32;20180;-54
2023/05/29 05:34:18;;;;;;;16.55;2.85;;;12.40;99.90;;;;;;7329948;32;20649;-56
2023/05/29 05:38:20;;;;;;;12.95;2.70;;;12.40;99.90;;;;;;7333369;32;20137;-56
2023/05/29 05:42:21;;;;;;;12.23;2.80;;;12.90;99.90;;;;;;7326142;32;20316;-57
2023/05/29 05:46:23;;;;;;;17.40;2.83;;;12.90;99.90;;;;;;7329604;32;20281;-56
2023/05/29 05:50:28;;;;;;;11.77;2.75;;;12.80;99.90;;;;;;7334109;32;20313;-57
2023/05/29 05:54:30;;;;;;;12.48;2.58;;;12.60;99.90;;;;;;7333283;32;20225;-57
2023/05/29 05:58:32;;;;;;;16.08;3.22;;;13.00;99.90;;;;;;7327838;32;20246;-57
2023/05/29 06:02:33;;;;;;;11.45;2.92;;;13.40;99.90;;;;;;7329291;32;20130;-57
2023/05/29 06:06:35;;;;;;;11.98;2.50;;;13.60;99.90;;;;;;7332792;32;20393;-57
2023/05/29 06:10:37;;;;;;;18.15;3.05;;;13.30;99.90;;;;;;7331181;32;20146;-55
2023/05/29 06:14:39;;;;;;;13.50;3.08;;;13.20;99.90;;;;;;7328245;32;20320;-56
2023/05/29 06:18:41;;;;;;;13.20;2.53;;;14.00;99.90;;;;;;7326935;32;20523;-56
2023/05/29 06:22:43;;;;;;;12.90;2.40;;;14.00;99.90;;;;;;7341747;32;20138;-54
2023/05/29 06:26:45;;;;;;;12.10;2.50;;;14.20;99.90;;;;;;7338850;32;20195;-56
2023/05/29 06:30:47;;;;;;;14.00;2.70;;;15.10;99.90;;;;;;7335537;32;20182;-56
2023/05/29 06:34:49;;;;;;;12.43;2.83;;;15.30;99.90;;;;;;7333485;32;20202;-55
2023/05/29 06:38:51;;;;;;;13.65;2.58;;;15.90;99.90;;;;;;7333305;32;20145;-57
2023/05/29 06:42:53;;;;;;;11.93;2.50;;;16.00;99.90;;;;;;7317044;32;20209;-57
2023/05/29 06:46:55;;;;;;;12.30;2.53;;;16.40;99.90;;;;;;7329856;32;20748;-57
2023/05/29 06:50:57;;;;;;;14.27;2.85;;;15.70;99.90;;;;;;7331498;32;20112;-56
2023/05/29 06:54:59;;;;;;;14.30;2.97;;;15.60;99.90;;;;;;7330701;32;20119;-57
2023/05/29 06:59:00;;;;;;;18.62;3.78;;;16.60;99.90;;;;;;7315507;32;20160;-56
2023/05/29 07:03:02;;;;;;;11.25;2.33;;;16.90;99.90;;;;;;7335433;32;20115;-56
2023/05/29 07:07:04;;;;;;;17.30;2.78;;;16.30;99.90;;;;;;7336222;32;20103;-56
2023/05/29 07:11:06;;;;;;;12.55;2.62;;;16.10;99.90;;;;;;7318345;32;20156;-56
2023/05/29 07:15:08;;;;;;;11.20;3.05;;;16.30;99.90;;;;;;7332490;32;20112;-56
2023/05/29 07:19:13;;;;;;;11.12;2.58;;;16.40;99.90;;;;;;7316278;32;20180;-56
2023/05/29 07:23:24;;;;;;;13.98;2.30;;;16.60;99.90;;;;;;7327239;32;20198;-56
2023/05/29 07:27:28;;;;;;;14.98;2.80;;;16.40;99.90;;;;;;7339394;32;20250;-56
2023/05/29 07:31:30;;;;;;;14.82;2.97;;;15.80;99.90;;;;;;7316036;32;20143;-55
2023/05/29 07:35:33;;;;;;;10.65;2.45;;;15.90;99.90;;;;;;7315137;32;20265;-55
2023/05/29 07:39:35;;;;;;;13.32;3.30;;;15.60;99.90;;;;;;7321218;32;20115;-56
2023/05/29 07:43:37;;;;;;;14.70;2.87;;;15.50;99.90;;;;;;7328527;32;20107;-55
2023/05/29 07:47:39;;;;;;;12.37;3.05;;;15.30;99.90;;;;;;7333825;32;20156;-55
2023/05/29 07:51:41;;;;;;;13.23;2.67;;;15.30;99.90;;;;;;7339161;32;20205;-56
2023/05/29 07:55:43;;;;;;;13.95;2.70;;;15.00;99.90;;;;;;7336086;32;20196;-56
2023/05/29 07:59:45;;;;;;;10.23;2.70;;;15.30;99.90;;;;;;7333942;32;20501;-56
2023/05/29 08:03:47;;;;;;;11.75;2.70;;;15.60;99.90;;;;;;7321074;32;20112;-56
2023/05/29 08:07:49;;;;;;;10.57;2.37;;;15.30;99.90;;;;;;7333424;32;20566;-56
2023/05/29 08:11:51;;;;;;;12.00;3.00;;;16.00;99.90;;;;;;7341207;32;20167;-56
2023/05/29 08:15:53;;;;;;;11.40;2.80;;;16.00;99.90;;;;;;7329576;32;20222;-57
2023/05/29 08:19:55;;;;;;;9.43;2.67;;;16.40;99.90;;;;;;7331589;32;20108;-56
2023/05/29 08:23:58;;;;;;;12.48;2.65;;;16.60;99.90;;;;;;7331580;32;20634;-57
2023/05/29 08:28:00;;;;;;;12.95;2.80;;;16.50;99.90;;;;;;7318099;32;20107;-56
2023/05/29 08:32:02;;;;;;;10.43;2.30;;;17.10;99.90;;;;;;7333040;32;20107;-56
2023/05/29 08:36:04;;;;;;;11.80;3.08;;;17.10;99.90;;;;;;7337847;32;20103;-56
2023/05/29 08:40:09;;;;;;;11.25;2.60;;;17.00;99.90;;;;;;7339658;32;20243;-56
2023/05/29 08:44:14;;;;;;;15.63;2.62;;;17.00;99.90;;;;;;7335912;32;20564;-57
2023/05/29 08:48:18;;;;;;;10.27;3.00;;;17.10;99.90;;;;;;7333643;32;20508;-56
2023/05/29 08:52:26;;;;;;;16.33;3.42;;;17.40;99.90;;;;;;7327665;32;20129;-57
2023/05/29 08:56:29;;;;;;;14.23;3.22;;;18.30;99.90;;;;;;7337304;32;20792;-57
2023/05/29 09:00:36;;;;;;;;;;;18.70;99.90;;;;;;7326415;32;20224;-57
2023/05/29 09:04:40;;;;;;;12.25;3.00;;;18.00;99.90;;;;;;7337172;32;20002;-57
2023/05/29 09:08:43;;;;;;;11.27;2.97;;;18.40;99.90;;;;;;7333368;32;20150;-56
2023/05/29 09:12:44;;;;;;;11.23;2.53;;;19.00;99.90;;;;;;7329126;32;20134;-56
2023/05/29 09:16:46;;;;;;;11.68;2.92;;;19.10;99.90;;;;;;7325783;32;20805;-57
2023/05/29 09:20:48;;;;;;;9.68;2.90;;;19.50;99.90;;;;;;7325764;32;20246;-57
2023/05/29 09:24:51;;;;;;;10.55;2.80;;;19.50;99.90;;;;;;7319379;32;20111;-57
2023/05/29 09:28:52;;;;;;;13.27;2.85;;;19.30;99.90;;;;;;7340317;32;20259;-57
2023/05/29 09:32:54;;;;;;;11.35;2.80;;;19.20;99.90;;;;;;7328342;32;20166;-57
2023/05/29 09:37:11;;;;;;;12.27;2.42;;;20.00;99.90;;;;;;7334802;32;20116;-57
2023/05/29 09:41:22;;;;;;;10.80;2.53;;;19.80;99.90;;;;;;7332214;32;20168;-58
2023/05/29 09:45:26;;;;;;;11.23;2.97;;;19.90;99.90;;;;;;7331137;32;20581;-57
2023/05/29 09:49:31;;;;;;;12.35;2.72;;;20.10;99.90;;;;;;7333431;32;20120;-57
2023/05/29 09:53:32;;;;;;;7.87;2.92;;;20.30;99.90;;;;;;7334390;32;20770;-57
2023/05/29 09:57:35;;;;;;;8.63;2.53;;;19.70;99.90;;;;;;7336327;32;20505;-56
2023/05/29 10:01:42;;;;;;;10.27;2.90;;;20.10;99.90;;;;;;7336432;32;20111;-56
2023/05/29 10:05:50;;;;;;;12.25;2.72;;;20.30;99.90;;;;;;7322056;32;20138;-57
2023/05/29 10:09:58;;;;;;;12.40;3.08;;;20.70;99.90;;;;;;7332102;32;20522;-57
2023/05/29 10:14:02;;;;;;;10.07;2.80;;;20.60;99.90;;;;;;7330643;32;20293;-57
2023/05/29 10:18:11;;;;;;;11.82;2.85;;;20.50;99.90;;;;;;7316431;32;20216;-57
2023/05/29 10:22:15;;;;;;;14.35;3.25;;;20.60;99.90;;;;;;7330111;32;20352;-57
2023/05/29 10:26:25;;;;;;;10.75;2.65;;;20.20;99.90;;;;;;7330722;32;20170;-57
2023/05/29 10:30:27;;;;;;;11.30;2.85;;;20.50;99.90;;;;;;7319961;32;20568;-57
2023/05/29 10:34:56;;;;;;;10.18;3.05;;;20.10;99.90;;;;;;7312925;32;20185;-57
2023/05/29 10:38:59;;;;;;;8.57;2.28;;;19.90;99.90;;;;;;7334904;32;20138;-57
2023/05/29 10:43:01;;;;;;;12.63;2.58;;;19.90;99.90;;;;;;7318811;32;20262;-57
2023/05/29 10:47:05;;;;;;;10.82;2.65;;;20.20;99.90;;;;;;7315559;32;20134;-57
2023/05/29 10:51:08;;;;;;;13.93;3.20;;;20.30;99.90;;;;;;7313125;32;20379;-55
2023/05/29 10:55:10;;;;;;;11.27;2.80;;;20.30;99.90;;;;;;7330341;32;20147;-55
2023/05/29 10:59:12;;;;;;;10.75;3.00;;;20.50;99.90;;;;;;7329131;32;20339;-55
2023/05/29 11:03:22;;;;;;;13.07;2.72;;;20.00;99.90;;;;;;7326406;32;20240;-58
2023/05/29 11:07:54;;;;;;;12.70;2.50;;;20.30;99.90;;;;;;7328626;32;20250;-56
2023/05/29 11:12:33;;;;;;;9.15;2.50;;;20.40;99.90;;;;;;7328729;32;20103;-56
2023/05/29 11:16:36;;;;;;;7.97;2.10;;;20.30;99.90;;;;;;7328825;32;20107;-56
2023/05/29 11:20:55;;;;;;;10.23;2.30;;;20.70;99.90;;;;;;7328670;32;20176;-56
2023/05/29 11:24:59;;;;;;;10.90;2.72;;;20.80;99.90;;;;;;7329831;32;20184;-56
2023/05/29 11:29:06;;;;;;;10.68;2.60;;;21.10;99.90;;;;;;7316586;32;20111;-55
2023/05/29 11:33:12;;;;;;;9.15;2.42;;;21.30;99.90;;;;;;7315740;32;20349;-54
2023/05/29 11:37:15;;;;;;;11.77;2.50;;;21.30;99.90;;;;;;7332281;32;20115;-55
2023/05/29 11:41:17;;;;;;;13.00;3.17;;;20.80;99.90;;;;;;7327240;32;20131;-55
2023/05/29 11:45:20;;;;;;;12.20;2.75;;;20.90;99.90;;;;;;7313902;32;20551;-55
2023/05/29 11:49:30;;;;;;;9.55;2.40;;;21.30;99.90;;;;;;7328809;32;20769;-55
2023/05/29 11:53:32;;;;;;;10.40;2.75;;;22.10;99.90;;;;;;7331023;32;20718;-55
2023/05/29 11:57:34;;;;;;;10.10;2.47;;;22.40;98.80;;;;;;7326928;32;20122;-55
2023/05/29 12:01:36;;;;;;;10.27;2.80;;;22.50;97.70;;;;;;7327377;32;20281;-55
2023/05/29 12:05:48;;;;;;;12.88;2.30;;;22.10;97.50;;;;;;7326286;32;20296;-54
2023/05/29 12:09:52;;;;;;;11.75;2.37;;;22.30;97.10;;;;;;7336175;32;20491;-54
2023/05/29 12:13:59;;;;;;;12.77;2.40;;;22.80;96.90;;;;;;7330169;32;20265;-55
2023/05/29 12:18:02;;;;;;;10.73;2.83;;;23.00;95.70;;;;;;7335699;32;20125;-55
2023/05/29 12:22:05;;;;;;;7.32;1.80;;;23.80;94.70;;;;;;7322536;32;20133;-55
2023/05/29 12:26:07;;;;;;;7.00;1.80;;;23.80;94.00;;;;;;7331192;32;20511;-54
2023/05/29 12:30:10;;;;;;;8.38;2.35;;;24.30;91.60;;;;;;7338200;32;20483;-55
2023/05/29 12:34:19;;;;;;;8.95;2.15;;;24.10;93.60;;;;;;7333727;32;20096;-55
2023/05/29 12:38:22;;;;;;;8.38;2.28;;;24.30;90.40;;;;;;7336463;32;20123;-55
2023/05/29 12:42:24;;;;;;;7.85;2.03;;;23.90;91.90;;;;;;7317959;32;20118;-55
2023/05/29 12:46:27;;;;;;;6.37;2.33;;;24.00;91.60;;;;;;7335923;32;20099;-55
2023/05/29 12:50:38;;;;;;;7.37;2.42;;;24.00;90.80;;;;;;7333285;32;20578;-55
2023/05/29 12:54:40;;;;;;;11.38;2.37;;;24.40;89.90;;;;;;7328554;32;20320;-54
2023/05/29 12:58:42;;;;;;;8.75;2.80;;;24.10;91.00;;;;;;7319863;32;20122;-55
2023/05/29 13:02:44;;;;;;;11.43;2.60;;;23.70;90.70;;;;;;7330298;32;20313;-54
2023/05/29 13:06:46;;;;;;;10.85;2.53;;;23.50;90.10;;;;;;7332893;32;20570;-55
2023/05/29 13:10:48;;;;;;;8.27;2.15;;;22.90;92.50;;;;;;7333200;32;20100;-58
2023/05/29 13:14:50;;;;;;;11.68;2.62;;;24.10;93.20;;;;;;7318974;32;20235;-58
2023/05/29 13:18:52;;;;;;;8.75;2.55;;;23.60;91.20;;;;;;7341146;32;20504;-59
2023/05/29 13:22:54;;;;;;;11.52;2.95;;;23.50;91.00;;;;;;7332987;32;20131;-59
2023/05/29 13:26:56;;;;;;;7.57;2.22;;;23.00;90.90;;;;;;7338716;32;20908;-60
2023/05/29 13:30:57;;;;;;;8.02;2.60;;;22.80;92.00;;;;;;7331949;32;20486;-60
2023/05/29 13:34:59;;;;;;;8.60;2.47;;;22.60;92.90;;;;;;7328322;32;20112;-57
2023/05/29 13:39:01;;;;;;;8.80;2.30;;;22.70;93.20;;;;;;7326501;32;20550;-57
2023/05/29 13:43:03;;;;;;;8.13;2.47;;;22.70;93.90;;;;;;7313687;32;20202;-57
2023/05/29 13:47:07;;;;;;;8.63;2.67;;;22.10;92.00;;;;;;7329543;32;20202;-57
2023/05/29 13:51:08;;;;;;;6.75;2.37;;;22.30;92.50;;;;;;7328237;32;20242;-57
2023/05/29 13:55:11;;;;;;;10.38;2.53;;;22.10;92.80;;;;;;7329719;32;20170;-56
2023/05/29 13:59:12;;;;;;;8.38;2.50;;;22.20;94.50;;;;;;7329318;32;20131;-57
2023/05/29 14:03:14;;;;;;;8.10;2.87;;;21.80;92.70;;;;;;7327239;32;20630;-57
2023/05/29 14:07:16;;;;;;;9.98;2.37;;;21.90;93.10;;;;;;7312825;32;20186;-57
2023/05/29 14:11:18;;;;;;;6.85;2.15;;;21.70;93.30;;;;;;7335522;32;20759;-56
2023/05/29 14:15:20;;;;;;;8.43;2.22;;;21.80;92.40;;;;;;7324242;32;20119;-57
2023/05/29 14:19:23;;;;;;;7.57;1.92;;;21.60;93.30;;;;;;7327386;32;20214;-57
2023/05/29 14:23:24;;;;;;;8.38;2.55;;;21.70;94.20;;;;;;7322925;32;20115;-57
2023/05/29 14:27:26;;;;;;;8.00;2.47;;;21.40;93.50;;;;;;7335317;32;20119;-57
2023/05/29 14:31:28;;;;;;;7.30;2.30;;;21.30;94.20;;;;;;7334888;32;20112;-56
2023/05/29 14:35:31;;;;;;;5.60;2.35;;;21.00;94.60;;;;;;7336652;32;20100;-56
2023/05/29 14:39:32;;;;;;;7.78;2.20;;;20.90;93.60;;;;;;7334452;32;20095;-56
2023/05/29 14:43:34;;;;;;;8.07;2.22;;;21.30;94.30;;;;;;7335420;32;20104;-57
2023/05/29 14:47:36;;;;;;;7.18;2.10;;;21.70;93.30;;;;;;7322606;32;20111;-56
2023/05/29 14:51:38;;;;;;;8.45;2.50;;;21.50;92.60;;;;;;7329928;32;20258;-57
2023/05/29 14:55:40;;;;;;;7.55;2.20;;;21.90;92.20;;;;;;7330278;32;20260;-57
2023/05/29 14:59:42;;;;;;;8.80;2.65;;;22.60;90.40;;;;;;7326763;32;20111;-57
2023/05/29 15:03:44;;;;;;;6.57;1.95;;;22.50;88.80;;;;;;7325688;32;20818;-57
2023/05/29 15:07:46;;;;;;;7.12;2.22;;;22.70;90.60;;;;;;7326879;32;20685;-58
2023/05/29 15:11:48;;;;;;;7.62;2.40;;;23.40;86.30;;;;;;7328196;32;20118;-58
2023/05/29 15:15:50;;;;;;;10.38;2.47;;;23.10;85.00;;;;;;7330689;32;20116;-58
2023/05/29 15:19:51;;;;;;;6.75;2.42;;;22.80;85.60;;;;;;7333884;32;20223;-58
2023/05/29 15:23:53;;;;;;;8.27;2.33;;;22.10;89.50;;;;;;7319476;32;20227;-58
2023/05/29 15:27:55;;;;;;;7.82;2.45;;;21.40;88.80;;;;;;7315533;32;20229;-58
2023/05/29 15:31:58;;;;;;;8.90;2.33;;;20.40;90.60;;;;;;7321587;32;20131;-56
2023/05/29 15:36:00;;;;;;;6.15;2.37;;;20.20;92.50;;;;;;7336624;32;20135;-56
2023/05/29 15:40:02;;;;;;;5.87;2.08;;;20.20;92.00;;;;;;7334430;32;20115;-58
2023/05/29 15:44:04;;;;;;;6.85;2.25;;;20.40;91.90;;;;;;7329861;32;20224;-57
2023/05/29 15:48:06;;;;;;;10.00;2.67;;;20.10;90.80;;;;;;7315204;32;20252;-58
2023/05/29 15:52:09;;;;;;;9.93;2.40;;;19.80;92.60;;;;;;7333799;32;20546;-57
2023/05/29 15:56:10;;;;;;;7.43;1.92;;;20.00;91.50;;;;;;7324124;32;20550;-57
2023/05/29 16:00:13;;;;;;;9.20;2.60;;;20.10;91.20;;;;;;7316361;32;20184;-57
2023/05/29 16:04:15;;;;;;;8.70;2.60;;;20.00;90.80;;;;;;7314675;32;20111;-57
2023/05/29 16:08:16;;;;;;;9.05;2.25;;;19.90;91.80;;;;;;7326336;32;20209;-57
2023/05/29 16:12:18;;;;;;;8.98;2.50;;;19.90;91.90;;;;;;7322591;32;20115;-57
2023/05/29 16:16:20;;;;;;;5.97;2.12;;;19.70;91.90;;;;;;7322491;32;20214;-57
2023/05/29 16:20:24;;;;;;;8.57;2.30;;;19.70;91.00;;;;;;7329862;32;20494;-57
2023/05/29 16:24:26;;;;;;;10.95;2.35;;;19.80;90.90;;;;;;7328768;32;20429;-56
2023/05/29 16:28:28;;;;;;;9.95;2.22;;;19.70;89.80;;;;;;7325662;32;20186;-54
2023/05/29 16:32:31;;;;;;;6.43;2.20;;;19.50;90.50;;;;;;7314607;32;20202;-57
2023/05/29 16:36:32;;;;;;;11.15;2.58;;;19.40;91.50;;;;;;7322746;32;20494;-57
2023/05/29 16:40:34;;;;;;;10.20;2.55;;;19.40;90.60;;;;;;7323303;32;20221;-57
2023/05/29 16:44:36;;;;;;;8.50;2.37;;;19.20;91.10;;;;;;7326401;32;20514;-57
2023/05/29 16:48:40;;;;;;;7.50;2.28;;;19.30;90.30;;;;;;7335765;32;20528;-56
2023/05/29 16:52:42;;;;;;;10.73;2.00;;;19.10;90.20;;;;;;7339076;32;20108;-57
2023/05/29 16:56:44;;;;;;;8.43;2.20;;;19.10;89.10;;;;;;7321732;32;20100;-57
2023/05/29 17:00:46;;;;;;;11.55;2.35;;;19.10;88.70;;;;;;7330325;32;20137;-57
2023/05/29 17:04:48;;;;;;;7.45;2.00;;;19.00;88.00;;;;;;7335492;32;20518;-56
2023/05/29 17:08:50;;;;;;;9.82;2.10;;;19.00;85.80;;;;;;7330054;32;20412;-58
2023/05/29 17:12:52;;;;;;;10.32;2.20;;;18.80;84.30;;;;;;7331850;32;20107;-57
2023/05/29 17:16:54;;;;;;;6.53;1.98;;;18.80;83.50;;;;;;7334389;32;20219;-57
2023/05/29 17:20:56;;;;;;;5.85;2.00;;;18.80;83.40;;;;;;7323906;32;20461;-56
2023/05/29 17:24:58;;;;;;;6.57;1.87;;;18.70;81.00;;;;;;7332284;32;20100;-57
2023/05/29 17:29:00;;;;;;;9.77;2.17;;;18.80;80.20;;;;;;7333863;32;20447;-57
2023/05/29 17:33:03;;;;;;;10.15;1.95;;;18.70;79.90;;;;;;7336892;32;20271;-57
2023/05/29 17:37:08;;;;;;;5.12;1.98;;;18.70;79.50;;;;;;7332415;32;20277;-57
2023/05/29 17:41:10;;;;;;;10.30;2.55;;;18.60;79.80;;;;;;7332434;32;20212;-56
2023/05/29 17:45:13;;;;;;;5.50;1.95;;;18.50;78.60;;;;;;7335044;32;20118;-58
2023/05/29 17:49:15;;;;;;;5.70;1.87;;;18.50;76.20;;;;;;7330423;32;20289;-57
2023/05/29 17:53:17;;;;;;;9.50;2.15;;;18.40;76.60;;;;;;7332168;32;20520;-57
2023/05/29 17:57:19;;;;;;;6.55;2.20;;;18.40;78.20;;;;;;7330644;32;20249;-57
2023/05/29 18:01:21;;;;;;;7.07;2.42;;;18.30;77.80;;;;;;7321249;32;20142;-57
2023/05/29 18:05:23;;;;;;;6.50;2.12;;;18.20;76.40;;;;;;7334506;32;20190;-57
2023/05/29 18:09:25;;;;;;;7.07;2.25;;;18.10;76.90;;;;;;7313204;32;20179;-57
2023/05/29 18:13:27;;;;;;;7.65;2.33;;;18.00;74.80;;;;;;7313498;32;20717;-56
2023/05/29 18:17:29;;;;;;;7.55;2.30;;;18.00;75.90;;;;;;7326477;32;20270;-57
2023/05/29 18:21:35;;;;;;;7.90;2.40;;;17.90;74.00;;;;;;7322749;32;20149;-58
2023/05/29 18:25:37;;;;;;;7.40;2.15;;;17.70;77.60;;;;;;7331885;32;20209;-58
2023/05/29 18:29:38;;;;;;;6.65;2.33;;;17.60;75.20;;;;;;7325264;32;20099;-57
2023/05/29 18:33:40;;;;;;;8.27;2.37;;;17.60;74.90;;;;;;7323992;32;20187;-56
2023/05/29 18:37:42;;;;;;;5.50;1.90;;;17.50;76.60;;;;;;7322823;32;20114;-57
2023/05/29 18:41:45;;;;;;;8.93;2.30;;;17.40;76.10;;;;;;7323612;32;20190;-57
2023/05/29 18:45:47;;;;;;;8.27;2.15;;;17.30;77.50;;;;;;7328669;32;20316;-57
2023/05/29 18:49:49;;;;;;;5.45;1.87;;;17.20;78.60;;;;;;7325319;32;20209;-57
2023/05/29 18:53:51;;;;;;;6.90;2.00;;;16.90;77.80;;;;;;7318477;32;20271;-56
2023/05/29 18:57:52;;;;;;;7.12;1.90;;;16.80;78.90;;;;;;7322790;32;20206;-57
2023/05/29 19:01:54;;;;;;;7.93;2.15;;;16.70;81.20;;;;;;7319454;32;20146;-57
2023/05/29 19:05:56;;;;;;;8.55;2.05;;;16.60;79.50;;;;;;7326379;32;20233;-57
2023/05/29 19:09:58;;;;;;;7.18;1.92;;;16.50;81.10;;;;;;7323105;32;20969;-55
2023/05/29 19:13:59;;;;;;;6.53;2.10;;;16.40;82.50;;;;;;7318685;32;20099;-57
2023/05/29 19:18:02;;;;;;;7.47;1.92;;;16.30;84.60;;;;;;7322114;32;20257;-57
2023/05/29 19:22:05;;;;;;;8.45;1.90;;;16.30;85.60;;;;;;7318806;32;20442;-57
2023/05/29 19:26:06;;;;;;;9.15;2.28;;;16.20;88.50;;;;;;7319428;32;20198;-56
2023/05/29 19:30:09;;;;;;;8.55;2.10;;;16.10;88.90;;;;;;7319294;32;20614;-56
2023/05/29 19:34:11;;;;;;;8.57;2.15;;;15.90;90.20;;;;;;7320263;32;20611;-57
2023/05/29 19:38:13;;;;;;;8.10;2.00;;;15.70;91.10;;;;;;7320974;32;20245;-58
2023/05/29 19:42:15;;;;;;;8.95;2.35;;;15.60;91.30;;;;;;7319886;32;20135;-56
2023/05/29 19:46:17;;;;;;;10.27;2.22;;;15.50;93.70;;;;;;7315061;32;20230;-56
2023/05/29 19:50:20;;;;;;;10.40;2.35;;;15.50;92.40;;;;;;7318735;32;20530;-56
2023/05/29 19:54:21;;;;;;;10.77;2.47;;;15.50;92.00;;;;;;7325636;32;20261;-59
2023/05/29 19:58:23;;;;;;;9.60;2.58;;;15.40;91.50;;;;;;7331121;32;20209;-57
2023/05/29 20:02:32;;;;;;;6.15;2.30;;;15.30;92.10;;;;;;7332587;32;20722;-57
2023/05/29 20:06:34;;;;;;;9.63;2.40;;;15.20;94.00;;;;;;7334538;32;20168;-54
2023/05/29 20:10:36;;;;;;;8.23;2.12;;;15.10;92.30;;;;;;7329399;32;20364;-56
2023/05/29 20:14:38;;;;;;;12.00;2.12;;;15.00;93.30;;;;;;7323723;32;20095;-57
2023/05/29 20:18:39;;;;;;;8.43;1.95;;;14.90;92.40;;;;;;7326067;32;20344;-57
2023/05/29 20:22:41;;;;;;;11.55;2.17;;;15.00;93.10;;;;;;7330265;32;20145;-57
2023/05/29 20:26:43;;;;;;;10.95;2.37;;;14.80;93.20;;;;;;7327390;32;20730;-57
2023/05/29 20:30:45;;;;;;;9.90;2.17;;;14.90;93.70;;;;;;7324170;32;20099;-57
2023/05/29 20:34:47;;;;;;;12.25;2.37;;;14.70;94.00;;;;;;7332467;32;20529;-56
2023/05/29 20:38:48;;;;;;;9.80;2.60;;;14.80;93.70;;;;;;7328378;32;20103;-57
2023/05/29 20:42:50;;;;;;;11.77;2.00;;;14.60;96.20;;;;;;7334013;32;20159;-57
2023/05/29 20:46:54;;;;;;;9.98;2.05;;;14.50;96.30;;;;;;7330170;32;20129;-57
2023/05/29 20:50:58;;;;;;;11.57;1.95;;;14.40;96.60;;;;;;7327396;32;20213;-57
2023/05/29 20:55:00;;;;;;;12.18;2.37;;;14.30;96.20;;;;;;7324778;32;20104;-57